sensor_id;sensor_type;location;lat;lon;timestamp;P1;durP1;ratioP1;P2;durP2;ratioP2
48789;SDS011;41718;51.980;5.734;2022-12-07T00:02:15;6.68;;;5.03;;
48789;SDS011;41718;51.980;5.734;2022-12-07T00:07:18;6.50;;;5.55;;
48789;SDS011;41718;51.980;5.734;2022-12-07T00:12:26;7.53;;;4.82;;
48789;SDS011;41718;51.980;5.734;2022-12-07T00:17:28;5.47;;;4.43;;
48789;SDS011;41718;51.980;5.734;2022-12-07T00:22:30;6.47;;;4.65;;
48789;SDS011;41718;51.980;5.734;2022-12-07T00:27:31;7.15;;;4.82;;
48789;SDS011;41718;51.980;5.734;2022-12-07T00:32:34;7.07;;;4.55;;
48789;SDS011;41718;51.980;5.734;2022-12-07T00:37:38;7.63;;;4.07;;
48789;SDS011;41718;51.980;5.734;2022-12-07T00:42:40;11.07;;;4.40;;
48789;SDS011;41718;51.980;5.734;2022-12-07T00:47:43;8.25;;;5.95;;
48789;SDS011;41718;51.980;5.734;2022-12-07T00:52:48;5.63;;;4.33;;
48789;SDS011;41718;51.980;5.734;2022-12-07T00:57:49;7.82;;;4.55;;
48789;SDS011;41718;51.980;5.734;2022-12-07T01:02:54;8.32;;;5.10;;
48789;SDS011;41718;51.980;5.734;2022-12-07T01:07:57;10.57;;;5.10;;
48789;SDS011;41718;51.980;5.734;2022-12-07T01:13:01;8.77;;;4.43;;
48789;SDS011;41718;51.980;5.734;2022-12-07T01:18:02;12.65;;;4.50;;
48789;SDS011;41718;51.980;5.734;2022-12-07T01:23:05;6.95;;;4.90;;
48789;SDS011;41718;51.980;5.734;2022-12-07T01:28:07;4.65;;;3.67;;
48789;SDS011;41718;51.980;5.734;2022-12-07T01:33:09;6.80;;;4.35;;
48789;SDS011;41718;51.980;5.734;2022-12-07T01:38:10;7.82;;;3.17;;
48789;SDS011;41718;51.980;5.734;2022-12-07T01:43:16;6.88;;;3.97;;
48789;SDS011;41718;51.980;5.734;2022-12-07T01:48:21;6.80;;;3.85;;
48789;SDS011;41718;51.980;5.734;2022-12-07T01:53:26;10.05;;;3.80;;
48789;SDS011;41718;51.980;5.734;2022-12-07T01:58:30;9.20;;;4.40;;
48789;SDS011;41718;51.980;5.734;2022-12-07T02:03:34;7.85;;;4.07;;
48789;SDS011;41718;51.980;5.734;2022-12-07T02:13:41;5.13;;;3.53;;
48789;SDS011;41718;51.980;5.734;2022-12-07T02:29:14;6.45;;;3.55;;
48789;SDS011;41718;51.980;5.734;2022-12-07T02:39:33;6.25;;;3.60;;
48789;SDS011;41718;51.980;5.734;2022-12-07T02:44:43;4.47;;;3.20;;
48789;SDS011;41718;51.980;5.734;2022-12-07T02:49:46;3.47;;;3.05;;
48789;SDS011;41718;51.980;5.734;2022-12-07T02:54:48;9.60;;;3.20;;
48789;SDS011;41718;51.980;5.734;2022-12-07T03:00:12;5.32;;;3.22;;
48789;SDS011;41718;51.980;5.734;2022-12-07T03:10:56;4.63;;;2.55;;
48789;SDS011;41718;51.980;5.734;2022-12-07T03:21:24;6.68;;;3.80;;
48789;SDS011;41718;51.980;5.734;2022-12-07T03:26:31;7.43;;;3.07;;
48789;SDS011;41718;51.980;5.734;2022-12-07T03:31:38;8.15;;;3.25;;
48789;SDS011;41718;51.980;5.734;2022-12-07T03:36:44;7.25;;;3.03;;
48789;SDS011;41718;51.980;5.734;2022-12-07T03:41:50;6.50;;;2.92;;
48789;SDS011;41718;51.980;5.734;2022-12-07T03:47:03;6.80;;;2.63;;
48789;SDS011;41718;51.980;5.734;2022-12-07T03:52:36;7.50;;;3.45;;
48789;SDS011;41718;51.980;5.734;2022-12-07T03:57:39;9.13;;;3.13;;
48789;SDS011;41718;51.980;5.734;2022-12-07T04:02:43;3.75;;;2.20;;
48789;SDS011;41718;51.980;5.734;2022-12-07T04:07:44;4.90;;;2.83;;
48789;SDS011;41718;51.980;5.734;2022-12-07T04:12:46;6.97;;;2.92;;
48789;SDS011;41718;51.980;5.734;2022-12-07T04:17:47;5.55;;;2.17;;
48789;SDS011;41718;51.980;5.734;2022-12-07T04:22:49;4.22;;;2.50;;
48789;SDS011;41718;51.980;5.734;2022-12-07T04:27:50;5.93;;;2.72;;
48789;SDS011;41718;51.980;5.734;2022-12-07T04:32:52;4.80;;;2.47;;
48789;SDS011;41718;51.980;5.734;2022-12-07T04:37:53;5.70;;;2.65;;
48789;SDS011;41718;51.980;5.734;2022-12-07T04:42:55;2.80;;;2.38;;
48789;SDS011;41718;51.980;5.734;2022-12-07T04:47:56;4.45;;;2.58;;
48789;SDS011;41718;51.980;5.734;2022-12-07T04:52:58;9.20;;;2.60;;
48789;SDS011;41718;51.980;5.734;2022-12-07T04:57:59;3.08;;;2.50;;
48789;SDS011;41718;51.980;5.734;2022-12-07T05:03:01;4.10;;;2.58;;
48789;SDS011;41718;51.980;5.734;2022-12-07T05:08:02;3.47;;;2.10;;
48789;SDS011;41718;51.980;5.734;2022-12-07T05:13:03;5.25;;;2.70;;
48789;SDS011;41718;51.980;5.734;2022-12-07T05:18:05;3.75;;;2.88;;
48789;SDS011;41718;51.980;5.734;2022-12-07T05:23:06;4.88;;;2.08;;
48789;SDS011;41718;51.980;5.734;2022-12-07T05:28:08;5.32;;;2.67;;
48789;SDS011;41718;51.980;5.734;2022-12-07T05:33:10;5.95;;;2.22;;
48789;SDS011;41718;51.980;5.734;2022-12-07T05:38:11;9.98;;;2.92;;
48789;SDS011;41718;51.980;5.734;2022-12-07T05:43:13;7.47;;;3.50;;
48789;SDS011;41718;51.980;5.734;2022-12-07T05:48:14;3.05;;;2.13;;
48789;SDS011;41718;51.980;5.734;2022-12-07T05:53:16;6.13;;;2.60;;
48789;SDS011;41718;51.980;5.734;2022-12-07T05:58:23;5.13;;;2.33;;
48789;SDS011;41718;51.980;5.734;2022-12-07T06:03:43;7.68;;;4.60;;
48789;SDS011;41718;51.980;5.734;2022-12-07T06:08:46;6.72;;;3.65;;
48789;SDS011;41718;51.980;5.734;2022-12-07T06:13:47;4.28;;;2.63;;
48789;SDS011;41718;51.980;5.734;2022-12-07T06:18:49;4.70;;;2.72;;
48789;SDS011;41718;51.980;5.734;2022-12-07T06:23:50;3.22;;;1.67;;
48789;SDS011;41718;51.980;5.734;2022-12-07T06:28:52;2.50;;;1.90;;
48789;SDS011;41718;51.980;5.734;2022-12-07T06:34:00;9.05;;;3.15;;
48789;SDS011;41718;51.980;5.734;2022-12-07T06:39:04;6.28;;;2.28;;
48789;SDS011;41718;51.980;5.734;2022-12-07T06:44:06;6.05;;;2.28;;
48789;SDS011;41718;51.980;5.734;2022-12-07T06:49:11;3.22;;;1.98;;
48789;SDS011;41718;51.980;5.734;2022-12-07T06:54:14;4.38;;;1.70;;
48789;SDS011;41718;51.980;5.734;2022-12-07T06:59:19;4.55;;;2.60;;
48789;SDS011;41718;51.980;5.734;2022-12-07T07:04:22;3.35;;;2.30;;
48789;SDS011;41718;51.980;5.734;2022-12-07T07:09:28;2.00;;;1.80;;
48789;SDS011;41718;51.980;5.734;2022-12-07T07:14:31;3.15;;;2.05;;
48789;SDS011;41718;51.980;5.734;2022-12-07T07:19:32;2.85;;;1.98;;
48789;SDS011;41718;51.980;5.734;2022-12-07T07:24:34;4.82;;;2.50;;
48789;SDS011;41718;51.980;5.734;2022-12-07T07:29:35;5.03;;;1.75;;
48789;SDS011;41718;51.980;5.734;2022-12-07T07:34:37;5.05;;;1.70;;
48789;SDS011;41718;51.980;5.734;2022-12-07T07:39:38;2.67;;;1.70;;
48789;SDS011;41718;51.980;5.734;2022-12-07T07:44:39;4.95;;;2.80;;
48789;SDS011;41718;51.980;5.734;2022-12-07T07:49:41;6.75;;;2.30;;
48789;SDS011;41718;51.980;5.734;2022-12-07T07:59:49;4.53;;;1.70;;
48789;SDS011;41718;51.980;5.734;2022-12-07T08:04:51;6.32;;;2.13;;
48789;SDS011;41718;51.980;5.734;2022-12-07T08:09:53;6.55;;;2.83;;
48789;SDS011;41718;51.980;5.734;2022-12-07T08:14:54;5.40;;;2.30;;
48789;SDS011;41718;51.980;5.734;2022-12-07T08:19:56;9.88;;;3.67;;
48789;SDS011;41718;51.980;5.734;2022-12-07T08:24:57;6.80;;;2.42;;
48789;SDS011;41718;51.980;5.734;2022-12-07T08:29:59;5.53;;;2.58;;
48789;SDS011;41718;51.980;5.734;2022-12-07T08:35:01;4.75;;;2.10;;
48789;SDS011;41718;51.980;5.734;2022-12-07T08:40:03;5.63;;;3.20;;
48789;SDS011;41718;51.980;5.734;2022-12-07T08:45:07;11.98;;;2.63;;
48789;SDS011;41718;51.980;5.734;2022-12-07T08:50:11;6.45;;;1.98;;
48789;SDS011;41718;51.980;5.734;2022-12-07T08:55:13;7.53;;;3.45;;
48789;SDS011;41718;51.980;5.734;2022-12-07T09:00:15;2.65;;;2.15;;
48789;SDS011;41718;51.980;5.734;2022-12-07T09:05:18;9.13;;;3.25;;
48789;SDS011;41718;51.980;5.734;2022-12-07T09:10:19;6.07;;;1.60;;
48789;SDS011;41718;51.980;5.734;2022-12-07T09:15:20;3.30;;;2.22;;
48789;SDS011;41718;51.980;5.734;2022-12-07T09:20:22;7.95;;;2.70;;
48789;SDS011;41718;51.980;5.734;2022-12-07T09:25:28;6.07;;;2.33;;
48789;SDS011;41718;51.980;5.734;2022-12-07T09:30:30;6.00;;;2.10;;
48789;SDS011;41718;51.980;5.734;2022-12-07T09:35:31;5.68;;;1.77;;
48789;SDS011;41718;51.980;5.734;2022-12-07T09:40:33;7.85;;;1.92;;
48789;SDS011;41718;51.980;5.734;2022-12-07T09:45:35;3.85;;;2.58;;
48789;SDS011;41718;51.980;5.734;2022-12-07T09:50:38;8.25;;;2.65;;
48789;SDS011;41718;51.980;5.734;2022-12-07T09:55:40;5.22;;;1.40;;
48789;SDS011;41718;51.980;5.734;2022-12-07T10:00:44;10.50;;;2.15;;
48789;SDS011;41718;51.980;5.734;2022-12-07T10:05:46;3.03;;;1.77;;
48789;SDS011;41718;51.980;5.734;2022-12-07T10:10:54;5.38;;;1.88;;
48789;SDS011;41718;51.980;5.734;2022-12-07T10:15:57;3.08;;;1.50;;
48789;SDS011;41718;51.980;5.734;2022-12-07T10:21:11;4.30;;;1.83;;
48789;SDS011;41718;51.980;5.734;2022-12-07T10:26:27;8.77;;;1.85;;
48789;SDS011;41718;51.980;5.734;2022-12-07T10:31:38;9.35;;;3.88;;
48789;SDS011;41718;51.980;5.734;2022-12-07T10:36:40;6.60;;;2.05;;
48789;SDS011;41718;51.980;5.734;2022-12-07T10:41:52;6.28;;;3.03;;
48789;SDS011;41718;51.980;5.734;2022-12-07T10:47:13;4.38;;;1.70;;
48789;SDS011;41718;51.980;5.734;2022-12-07T10:57:46;5.28;;;2.35;;
48789;SDS011;41718;51.980;5.734;2022-12-07T11:13:56;1.88;;;1.15;;
48789;SDS011;41718;51.980;5.734;2022-12-07T11:19:44;3.97;;;2.10;;
48789;SDS011;41718;51.980;5.734;2022-12-07T11:25:50;6.60;;;1.75;;
48789;SDS011;41718;51.980;5.734;2022-12-07T11:30:38;5.55;;;2.00;;
48789;SDS011;41718;51.980;5.734;2022-12-07T11:41:10;2.42;;;1.25;;
48789;SDS011;41718;51.980;5.734;2022-12-07T11:46:15;14.32;;;5.53;;
48789;SDS011;41718;51.980;5.734;2022-12-07T11:51:19;4.60;;;1.85;;
48789;SDS011;41718;51.980;5.734;2022-12-07T11:56:33;7.88;;;3.78;;
48789;SDS011;41718;51.980;5.734;2022-12-07T12:06:43;4.75;;;1.73;;
48789;SDS011;41718;51.980;5.734;2022-12-07T12:23:17;8.40;;;3.50;;
48789;SDS011;41718;51.980;5.734;2022-12-07T12:33:52;6.28;;;2.10;;
48789;SDS011;41718;51.980;5.734;2022-12-07T13:09:49;2.58;;;1.33;;
48789;SDS011;41718;51.980;5.734;2022-12-07T13:14:58;9.73;;;1.80;;
48789;SDS011;41718;51.980;5.734;2022-12-07T13:20:04;4.32;;;1.38;;
48789;SDS011;41718;51.980;5.734;2022-12-07T13:30:21;4.95;;;1.42;;
48789;SDS011;41718;51.980;5.734;2022-12-07T13:35:41;1.63;;;1.10;;
48789;SDS011;41718;51.980;5.734;2022-12-07T13:40:42;3.92;;;1.35;;
48789;SDS011;41718;51.980;5.734;2022-12-07T13:46:00;8.05;;;1.75;;
48789;SDS011;41718;51.980;5.734;2022-12-07T13:51:23;3.13;;;1.02;;
48789;SDS011;41718;51.980;5.734;2022-12-07T13:56:27;3.03;;;0.85;;
48789;SDS011;41718;51.980;5.734;2022-12-07T14:01:34;4.47;;;1.17;;
48789;SDS011;41718;51.980;5.734;2022-12-07T14:06:36;3.85;;;1.10;;
48789;SDS011;41718;51.980;5.734;2022-12-07T14:11:49;2.35;;;1.17;;
48789;SDS011;41718;51.980;5.734;2022-12-07T14:16:56;2.13;;;1.60;;
48789;SDS011;41718;51.980;5.734;2022-12-07T14:27:46;6.60;;;2.35;;
48789;SDS011;41718;51.980;5.734;2022-12-07T14:32:56;4.15;;;0.90;;
48789;SDS011;41718;51.980;5.734;2022-12-07T14:37:59;2.00;;;0.90;;
48789;SDS011;41718;51.980;5.734;2022-12-07T14:43:05;3.92;;;0.77;;
48789;SDS011;41718;51.980;5.734;2022-12-07T14:48:13;7.40;;;2.95;;
48789;SDS011;41718;51.980;5.734;2022-12-07T14:53:37;4.40;;;1.25;;
48789;SDS011;41718;51.980;5.734;2022-12-07T14:58:44;1.80;;;0.90;;
48789;SDS011;41718;51.980;5.734;2022-12-07T15:03:49;3.20;;;2.20;;
48789;SDS011;41718;51.980;5.734;2022-12-07T15:08:51;5.63;;;1.70;;
48789;SDS011;41718;51.980;5.734;2022-12-07T15:13:52;5.32;;;2.28;;
48789;SDS011;41718;51.980;5.734;2022-12-07T15:19:10;6.57;;;2.47;;
48789;SDS011;41718;51.980;5.734;2022-12-07T15:24:30;2.22;;;1.73;;
48789;SDS011;41718;51.980;5.734;2022-12-07T15:29:32;4.13;;;2.25;;
48789;SDS011;41718;51.980;5.734;2022-12-07T15:34:36;4.45;;;2.08;;
48789;SDS011;41718;51.980;5.734;2022-12-07T15:39:41;3.92;;;1.58;;
48789;SDS011;41718;51.980;5.734;2022-12-07T15:44:45;3.38;;;1.65;;
48789;SDS011;41718;51.980;5.734;2022-12-07T15:50:07;1.58;;;1.23;;
48789;SDS011;41718;51.980;5.734;2022-12-07T15:55:11;3.05;;;2.40;;
48789;SDS011;41718;51.980;5.734;2022-12-07T16:00:19;4.88;;;2.22;;
48789;SDS011;41718;51.980;5.734;2022-12-07T16:05:22;3.85;;;1.13;;
48789;SDS011;41718;51.980;5.734;2022-12-07T16:10:23;10.60;;;1.42;;
48789;SDS011;41718;51.980;5.734;2022-12-07T16:15:26;7.00;;;2.25;;
48789;SDS011;41718;51.980;5.734;2022-12-07T16:20:28;3.80;;;1.83;;
48789;SDS011;41718;51.980;5.734;2022-12-07T16:25:29;6.10;;;1.30;;
48789;SDS011;41718;51.980;5.734;2022-12-07T16:30:33;2.70;;;2.38;;
48789;SDS011;41718;51.980;5.734;2022-12-07T16:35:37;1.30;;;0.90;;
48789;SDS011;41718;51.980;5.734;2022-12-07T16:40:42;1.70;;;0.80;;
48789;SDS011;41718;51.980;5.734;2022-12-07T16:45:46;3.25;;;1.75;;
48789;SDS011;41718;51.980;5.734;2022-12-07T16:50:49;3.10;;;1.88;;
48789;SDS011;41718;51.980;5.734;2022-12-07T16:55:51;2.45;;;1.40;;
48789;SDS011;41718;51.980;5.734;2022-12-07T17:00:54;1.88;;;1.77;;
48789;SDS011;41718;51.980;5.734;2022-12-07T17:05:56;4.85;;;1.60;;
48789;SDS011;41718;51.980;5.734;2022-12-07T17:11:00;5.30;;;1.98;;
48789;SDS011;41718;51.980;5.734;2022-12-07T17:16:02;5.57;;;2.53;;
48789;SDS011;41718;51.980;5.734;2022-12-07T17:21:08;4.77;;;1.50;;
48789;SDS011;41718;51.980;5.734;2022-12-07T17:26:14;1.60;;;1.50;;
48789;SDS011;41718;51.980;5.734;2022-12-07T17:31:21;2.88;;;1.90;;
48789;SDS011;41718;51.980;5.734;2022-12-07T17:36:25;4.05;;;2.53;;
48789;SDS011;41718;51.980;5.734;2022-12-07T17:41:28;6.30;;;3.15;;
48789;SDS011;41718;51.980;5.734;2022-12-07T17:46:51;7.07;;;3.30;;
48789;SDS011;41718;51.980;5.734;2022-12-07T17:51:59;5.63;;;2.67;;
48789;SDS011;41718;51.980;5.734;2022-12-07T17:57:21;9.00;;;3.10;;
48789;SDS011;41718;51.980;5.734;2022-12-07T18:02:25;3.55;;;2.45;;
48789;SDS011;41718;51.980;5.734;2022-12-07T18:07:31;8.52;;;2.92;;
48789;SDS011;41718;51.980;5.734;2022-12-07T18:12:33;7.68;;;3.47;;
48789;SDS011;41718;51.980;5.734;2022-12-07T18:17:34;5.97;;;2.30;;
48789;SDS011;41718;51.980;5.734;2022-12-07T18:22:36;5.43;;;3.15;;
48789;SDS011;41718;51.980;5.734;2022-12-07T18:27:41;8.00;;;2.30;;
48789;SDS011;41718;51.980;5.734;2022-12-07T18:32:43;3.53;;;2.30;;
48789;SDS011;41718;51.980;5.734;2022-12-07T18:37:46;7.38;;;3.53;;
48789;SDS011;41718;51.980;5.734;2022-12-07T18:42:48;7.93;;;3.55;;
48789;SDS011;41718;51.980;5.734;2022-12-07T18:47:49;2.58;;;2.03;;
48789;SDS011;41718;51.980;5.734;2022-12-07T18:52:51;4.90;;;2.90;;
48789;SDS011;41718;51.980;5.734;2022-12-07T18:57:52;5.45;;;2.55;;
48789;SDS011;41718;51.980;5.734;2022-12-07T19:02:56;3.45;;;1.92;;
48789;SDS011;41718;51.980;5.734;2022-12-07T19:07:57;1.90;;;1.58;;
48789;SDS011;41718;51.980;5.734;2022-12-07T19:13:02;5.10;;;2.85;;
48789;SDS011;41718;51.980;5.734;2022-12-07T19:18:04;3.30;;;2.38;;
48789;SDS011;41718;51.980;5.734;2022-12-07T19:23:06;6.80;;;3.63;;
48789;SDS011;41718;51.980;5.734;2022-12-07T19:28:09;5.35;;;2.83;;
48789;SDS011;41718;51.980;5.734;2022-12-07T19:33:12;4.20;;;2.10;;
48789;SDS011;41718;51.980;5.734;2022-12-07T19:38:13;5.28;;;2.65;;
48789;SDS011;41718;51.980;5.734;2022-12-07T19:43:23;5.53;;;2.90;;
48789;SDS011;41718;51.980;5.734;2022-12-07T19:48:28;8.55;;;3.35;;
48789;SDS011;41718;51.980;5.734;2022-12-07T19:53:33;2.78;;;2.08;;
48789;SDS011;41718;51.980;5.734;2022-12-07T19:58:34;5.50;;;3.30;;
48789;SDS011;41718;51.980;5.734;2022-12-07T20:03:39;8.45;;;4.72;;
48789;SDS011;41718;51.980;5.734;2022-12-07T20:08:41;4.55;;;2.88;;
48789;SDS011;41718;51.980;5.734;2022-12-07T20:13:45;6.43;;;3.53;;
48789;SDS011;41718;51.980;5.734;2022-12-07T20:18:47;9.25;;;4.88;;
48789;SDS011;41718;51.980;5.734;2022-12-07T20:24:04;6.78;;;3.53;;
48789;SDS011;41718;51.980;5.734;2022-12-07T20:29:10;5.85;;;4.32;;
48789;SDS011;41718;51.980;5.734;2022-12-07T20:34:18;9.90;;;6.35;;
48789;SDS011;41718;51.980;5.734;2022-12-07T20:39:22;8.55;;;5.05;;
48789;SDS011;41718;51.980;5.734;2022-12-07T20:44:24;6.10;;;4.97;;
48789;SDS011;41718;51.980;5.734;2022-12-07T20:49:27;8.65;;;5.20;;
48789;SDS011;41718;51.980;5.734;2022-12-07T20:54:32;6.75;;;4.65;;
48789;SDS011;41718;51.980;5.734;2022-12-07T20:59:33;7.40;;;4.80;;
48789;SDS011;41718;51.980;5.734;2022-12-07T21:04:41;8.90;;;4.78;;
48789;SDS011;41718;51.980;5.734;2022-12-07T21:09:47;7.40;;;4.47;;
48789;SDS011;41718;51.980;5.734;2022-12-07T21:14:49;8.77;;;5.38;;
48789;SDS011;41718;51.980;5.734;2022-12-07T21:19:54;6.97;;;4.25;;
48789;SDS011;41718;51.980;5.734;2022-12-07T21:24:58;6.47;;;4.63;;
48789;SDS011;41718;51.980;5.734;2022-12-07T21:30:03;13.27;;;4.40;;
48789;SDS011;41718;51.980;5.734;2022-12-07T21:35:06;9.10;;;3.90;;
48789;SDS011;41718;51.980;5.734;2022-12-07T21:40:09;6.25;;;3.22;;
48789;SDS011;41718;51.980;5.734;2022-12-07T21:45:17;4.47;;;3.13;;
48789;SDS011;41718;51.980;5.734;2022-12-07T21:50:18;1.70;;;1.10;;
48789;SDS011;41718;51.980;5.734;2022-12-07T21:55:21;8.52;;;3.80;;
48789;SDS011;41718;51.980;5.734;2022-12-07T22:00:23;9.95;;;3.75;;
48789;SDS011;41718;51.980;5.734;2022-12-07T22:05:25;4.97;;;3.65;;
48789;SDS011;41718;51.980;5.734;2022-12-07T22:10:27;9.27;;;4.95;;
48789;SDS011;41718;51.980;5.734;2022-12-07T22:15:29;8.50;;;5.28;;
48789;SDS011;41718;51.980;5.734;2022-12-07T22:20:30;8.25;;;4.97;;
48789;SDS011;41718;51.980;5.734;2022-12-07T22:25:32;9.70;;;6.15;;
48789;SDS011;41718;51.980;5.734;2022-12-07T22:30:34;8.88;;;5.93;;
48789;SDS011;41718;51.980;5.734;2022-12-07T22:35:41;7.28;;;4.28;;
48789;SDS011;41718;51.980;5.734;2022-12-07T22:40:43;7.75;;;5.70;;
48789;SDS011;41718;51.980;5.734;2022-12-07T22:45:55;7.35;;;3.90;;
48789;SDS011;41718;51.980;5.734;2022-12-07T22:51:00;5.43;;;4.43;;
48789;SDS011;41718;51.980;5.734;2022-12-07T22:56:02;8.35;;;4.95;;
48789;SDS011;41718;51.980;5.734;2022-12-07T23:01:06;7.78;;;5.53;;
48789;SDS011;41718;51.980;5.734;2022-12-07T23:06:13;6.33;;;3.73;;
48789;SDS011;41718;51.980;5.734;2022-12-07T23:11:26;8.95;;;5.15;;
48789;SDS011;41718;51.980;5.734;2022-12-07T23:16:48;7.57;;;4.72;;
48789;SDS011;41718;51.980;5.734;2022-12-07T23:21:50;7.80;;;4.70;;
48789;SDS011;41718;51.980;5.734;2022-12-07T23:26:53;6.40;;;4.50;;
48789;SDS011;41718;51.980;5.734;2022-12-07T23:31:57;7.03;;;4.72;;
48789;SDS011;41718;51.980;5.734;2022-12-07T23:37:00;6.90;;;4.68;;
48789;SDS011;41718;51.980;5.734;2022-12-07T23:42:02;4.50;;;3.70;;
48789;SDS011;41718;51.980;5.734;2022-12-07T23:47:04;5.60;;;3.50;;
48789;SDS011;41718;51.980;5.734;2022-12-07T23:52:05;6.78;;;3.80;;
48789;SDS011;41718;51.980;5.734;2022-12-07T23:57:07;3.20;;;2.80;;
